Terminal Aerodrome Forecast
Issued by NWS Blacksburg, VA

Home | Current Version | Previous Version | Text Only | Print | Product List | Glossary On
Versions: 1 2 3 4 5 6 7 8 9 10 11 12 13 14 15 16 17 18 19 20 21 22 23 24 25 26 27 28
000
FTUS41 KRNK 301124
TAFBLF
TAF
KBLF 301124Z 3012/3112 VRB03KT P6SM BKN015
     FM301400 26005KT P6SM BKN040
     FM302100 28007KT P6SM BKN050
      TEMPO 3021/3023 5SM TSRA OVC045CB
     FM310100 VRB03KT P6SM BKN060
     FM311000 VRB03KT P6SM BKN020=

USA.gov is the U.S. government's official web portal to all federal, state and local government web resources and services.